[ ตารางข้อมูล ] [ Min-Max ] [ วันนี้2 ] [ วันนี้4 ] [ เทียบ-A 3วัน ] [ เทียบ-B 4วัน ]   

วันนี้2   [ ◀ ช่วงเก่ากว่า ] [ ช่วงที่ 25 ] [ ช่วงใหม่กว่า ▶ ] [ ล่าสุด ]    [ 3 ชั่วโมง ] [ 6 ชั่วโมง ] [ 12 ชั่วโมง ] [ 24 ชั่วโมง ]   วันนี้2

อุณภูมิในตู้ Knockdown4529  ราย 12 ชั่วโมง  ที่วัดได้ ในช่วงวันเวลา 19/08/2026 (01:31) ถึง 19/08/2026 (13:31) 
ความชื้นในตู้ Knockdown4529  ราย 12 ชั่วโมง  ที่วัดได้ ในช่วงวันเวลา 19/08/2026 (01:31) ถึง 19/08/2026 (13:31) 
การใช้ไฟฟ้าในตู้ Knockdown4529  ราย 12 ชั่วโมง  ที่วัดได้ ในช่วงวันเวลา 19/08/2026 (01:31) ถึง 19/08/2026 (13:31) 

  DS18B20SHTC3PZEM-004TWiFi 
IDDate d/m/Y & Timedata1
สูง
data2
ต่ำ
data3
นอก
temp
pcb
hum
pcb
VoltAmpWattrssiTime
 14055  19/08/2026 13:26:36  34.2  32.6  34.9  35.0  65.7  234.7  0.04  4.7  -79  13:26 
 14054  19/08/2026 13:21:52  34.1  32.6  35.3  34.6  66.0  234.5  0.04  4.7  -79  13:21 
 14053  19/08/2026 13:17:08  34.0  32.5  35.2  34.6  66.2  236.0  0.04  4.6  -78  13:17 
 14052  19/08/2026 13:12:25  33.8  32.4  35.0  34.2  68.0  236.3  0.04  4.7  -76  13:12 
 14051  19/08/2026 13:07:42  33.3  32.1  35.0  33.6  70.5  236.3  0.04  4.4  -76  13:07 
 14050  19/08/2026 13:02:58  33.2  32.1  34.7  33.7  70.3  235.3  0.04  4.7  -80  13:02 
 14049  19/08/2026 12:58:15  33.2  32.0  34.4  33.5  70.3  235.3  0.04  4.6  -76  12:58 
 14048  19/08/2026 12:53:31  33.2  32.0  34.5  33.6  69.7  234.8  0.04  4.6  -78  12:53 
 14047  19/08/2026 12:48:48  33.2  31.9  35.0  33.7  70.1  234.4  0.04  4.6  -79  12:48 
 14046  19/08/2026 12:44:05  33.2  31.8  34.9  33.5  69.2  237.0  0.04  4.6  -78  12:44 
 14045  19/08/2026 12:39:19  33.2  31.7  34.9  33.6  68.5  236.8  0.04  4.6  -79  12:39 
 14044  19/08/2026 12:34:36  33.0  31.7  34.9  33.3  67.8  236.6  0.04  4.7  -81  12:34 
 14043  19/08/2026 12:29:53  32.9  31.6  34.7  33.1  65.8  236.9  0.04  4.5  -79  12:29 
 14042  19/08/2026 12:25:08  32.8  31.6  34.7  33.2  67.2  237.2  0.04  4.7  -82  12:25 
 14041  19/08/2026 12:20:25  32.9  31.6  34.6  33.6  65.7  238.0  0.04  4.7  -80  12:20 
 14040  19/08/2026 12:15:40  33.4  31.8  34.3  34.4  63.0  237.8  0.04  4.4  -79  12:15 
 14039  19/08/2026 12:10:56  33.4  31.8  34.3  34.1  63.2  238.3  0.04  4.4  -80  12:10 
 14038  19/08/2026 12:06:13  33.4  31.7  34.3  34.2  63.5  238.1  0.04  4.4  -79  12:06 
 14037  19/08/2026 12:01:29  33.4  31.6  34.2  34.1  63.6  237.8  0.04  4.4  -80  12:01 
 14036  19/08/2026 11:56:45  33.3  31.6  34.0  34.1  64.0  237.6  0.04  4.7  -79  11:56 
 14035  19/08/2026 11:52:02  33.2  31.5  34.0  34.0  64.3  235.8  0.04  4.7  -79  11:52 
 14034  19/08/2026 11:47:19  33.2  31.5  34.4  33.9  64.6  237.0  0.04  4.7  -77  11:47 
 14033  19/08/2026 11:42:35  33.1  31.4  34.4  33.8  65.3  237.4  0.04  4.7  -78  11:42 
 14032  19/08/2026 11:37:52  33.0  31.4  34.2  33.6  66.0  235.4  0.04  4.6  -79  11:37 

Data every 5 minute.


ใช้เวลาประมวลผล 0.02515 วินาที